^^
Station Historical Data
Daily Summary for December 6, 2017 Units:  English    Metric   Both
« Previous Day
Next Day »
Daily Weekly Monthly Yearly Custom
  High: Low: Average:
Temperature: 53.8 °F 29.2 °F 38.5 °F
Dew Point: 51.8 °F 16.7 °F 25.5 °F
Humidity: 93 % 39 % 61 %
Wind Speed: 15.2 mph 0.0 mph 3.9 mph
Wind Gust: 26.5 mph - -
Wind:- - West
Pressure: 30.07 in 29.82 in -
Precipitation: 0.02 in    
Historical Graphs
 
 
Tabular Data for December 6, 2017
Time Temperature Dew Point Pressure Wind Wind Speed Wind Gust Humidity Rainfall Rate (Hourly) solar Conditions
00:03 53.7 °F 51.7 °F 29.82 in WSW 2.5 mph 6.9 mph 93 % 0.00 in 0.0 W/m2 RA
00:08 53.7 °F 51.7 °F 29.82 in SW 1.3 mph 8.1 mph 93 % 0.00 in 0.0 W/m2 RA
00:13 53.8 °F 51.8 °F 29.82 in WSW 0.9 mph 8.1 mph 93 % 0.00 in 0.0 W/m2 BKN
00:18 53.8 °F 51.8 °F 29.82 in WSW 2.0 mph 8.1 mph 93 % 0.00 in 0.0 W/m2 BKN
00:23 53.7 °F 51.7 °F 29.82 in Calm   8.1 mph 93 % 0.00 in 0.0 W/m2 FEW
00:28 53.6 °F 51.6 °F 29.82 in Calm   10.4 mph 93 % 0.00 in 0.0 W/m2 FEW
00:33 53.6 °F 51.6 °F 29.82 in WSW 0.7 mph 10.4 mph 93 % 0.00 in 0.0 W/m2 FEW
00:38 53.5 °F 51.5 °F 29.82 in Calm   5.8 mph 93 % 0.00 in 0.0 W/m2 FEW
00:43 53.6 °F 51.6 °F 29.82 in West 2.4 mph 6.9 mph 93 % 0.00 in 0.0 W/m2 FEW
00:48 53.6 °F 51.6 °F 29.82 in SW 0.6 mph 6.9 mph 93 % 0.00 in 0.0 W/m2 FEW
00:53 53.6 °F 51.6 °F 29.82 in Calm   6.9 mph 93 % 0.00 in 0.0 W/m2 FEW
00:58 53.5 °F 51.5 °F 29.82 in West 0.3 mph 5.8 mph 93 % 0.00 in 0.0 W/m2 FEW
01:04 53.1 °F 50.8 °F 29.83 in WNW 6.5 mph 25.3 mph 92 % 0.00 in 0.0 W/m2 OVC
01:09 51.7 °F 49.2 °F 29.84 in NNW 6.6 mph 25.3 mph 91 % 0.00 in 0.0 W/m2 OVC
01:14 50.9 °F 48.4 °F 29.86 in WNW 5.2 mph 19.6 mph 91 % 0.00 in 0.0 W/m2 OVC
01:15 50.8 °F 48.3 °F 29.86 in WNW 5.5 mph 19.6 mph 91 % 0.00 in 0.0 W/m2 OVC
01:20 50.1 °F 47.3 °F 29.87 in West 12.2 mph 23.0 mph 90 % 0.01 in 0.0 W/m2 RA
01:25 49.7 °F 46.9 °F 29.88 in WNW 3.0 mph 23.0 mph 90 % 0.01 in 0.0 W/m2 RA
01:30 48.7 °F 45.3 °F 29.86 in WNW 4.1 mph 24.2 mph 88 % 0.01 in 0.0 W/m2 OVC
01:35 47.6 °F 44.2 °F 29.87 in WNW 4.7 mph 24.2 mph 88 % 0.02 in 0.0 W/m2 RA
01:40 47.1 °F 44.0 °F 29.88 in WNW 4.9 mph 19.6 mph 89 % 0.02 in 0.0 W/m2 RA
01:45 46.8 °F 43.7 °F 29.88 in WNW 8.1 mph 15.0 mph 89 % 0.02 in 0.0 W/m2 OVC
01:50 46.6 °F 43.5 °F 29.89 in NW 6.9 mph 17.3 mph 89 % 0.02 in 0.0 W/m2 -RA
01:55 46.3 °F 43.2 °F 29.89 in WNW 5.5 mph 17.3 mph 89 % 0.02 in 0.0 W/m2 -RA
02:00 46.0 °F 42.6 °F 29.89 in West 7.6 mph 19.6 mph 88 % 0.02 in 0.0 W/m2 -RA
02:05 46.0 °F 42.6 °F 29.89 in WSW 2.4 mph 19.6 mph 88 % 0.02 in 0.0 W/m2 -RA
02:10 45.9 °F 42.5 °F 29.89 in West 1.2 mph 16.1 mph 88 % 0.02 in 0.0 W/m2 -RA
02:15 45.7 °F 42.1 °F 29.89 in Calm   8.1 mph 87 % 0.02 in 0.0 W/m2 -RA
02:20 45.5 °F 41.9 °F 29.89 in WSW 5.1 mph 10.4 mph 87 % 0.01 in 0.0 W/m2 -RA
02:25 45.4 °F 41.5 °F 29.89 in West 2.3 mph 10.4 mph 86 % 0.01 in 0.0 W/m2 -RA
02:30 45.4 °F 41.2 °F 29.89 in West 1.2 mph 10.4 mph 85 % 0.01 in 0.0 W/m2 -RA
02:35 45.4 °F 40.8 °F 29.90 in WSW 0.3 mph 9.2 mph 84 % 0.00 in 0.0 W/m2 -RA
02:40 45.3 °F 40.7 °F 29.90 in West 1.0 mph 5.8 mph 84 % 0.00 in 0.0 W/m2 -RA
02:45 45.4 °F 40.5 °F 29.90 in WSW 1.8 mph 9.2 mph 83 % 0.00 in 0.0 W/m2 -RA
02:50 45.4 °F 40.2 °F 29.90 in SW 4.4 mph 11.5 mph 82 % 0.00 in 0.0 W/m2 -RA
02:55 45.4 °F 39.9 °F 29.90 in West 4.4 mph 11.5 mph 81 % 0.00 in 0.0 W/m2 -RA
02:56 45.4 °F 39.9 °F 29.90 in West 5.2 mph 11.5 mph 81 % 0.00 in 0.0 W/m2 -RA
03:01 45.5 °F 39.7 °F 29.90 in NW 2.4 mph 11.5 mph 80 % 0.00 in 0.0 W/m2 OVC
03:06 45.5 °F 39.4 °F 29.91 in West 4.8 mph 11.5 mph 79 % 0.00 in 0.0 W/m2 OVC
03:11 45.6 °F 39.1 °F 29.91 in West 2.6 mph 10.4 mph 78 % 0.00 in 0.0 W/m2 OVC
03:16 45.5 °F 39.0 °F 29.91 in West 6.1 mph 11.5 mph 78 % 0.00 in 0.0 W/m2 OVC
03:21 45.4 °F 38.9 °F 29.91 in WNW 5.5 mph 11.5 mph 78 % 0.00 in 0.0 W/m2 OVC
03:26 45.4 °F 38.6 °F 29.91 in West 4.9 mph 13.8 mph 77 % 0.00 in 0.0 W/m2 OVC
03:31 45.4 °F 38.3 °F 29.91 in WNW 8.3 mph 13.8 mph 76 % 0.00 in 0.0 W/m2 OVC
03:36 45.2 °F 37.1 °F 29.91 in NW 10.6 mph 19.6 mph 73 % 0.00 in 0.0 W/m2 OVC
03:41 45.0 °F 35.8 °F 29.91 in NW 14.2 mph 19.6 mph 70 % 0.00 in 0.0 W/m2 OVC
03:47 44.8 °F 34.5 °F 29.92 in West 11.0 mph 20.7 mph 67 % 0.00 in 0.0 W/m2 OVC
03:52 44.8 °F 34.1 °F 29.92 in WNW 10.9 mph 20.7 mph 66 % 0.00 in 0.0 W/m2 OVC
03:57 44.6 °F 33.9 °F 29.92 in WNW 6.0 mph 20.7 mph 66 % 0.00 in 0.0 W/m2 OVC
04:02 44.3 °F 34.0 °F 29.93 in WNW 6.4 mph 17.3 mph 67 % 0.00 in 0.0 W/m2 BKN
04:07 43.8 °F 33.2 °F 29.93 in WNW 8.8 mph 17.3 mph 66 % 0.00 in 0.0 W/m2 BKN
04:12 43.3 °F 31.9 °F 29.94 in West 12.5 mph 23.0 mph 64 % 0.00 in 0.0 W/m2 BKN
04:13 43.2 °F 31.8 °F 29.94 in West 12.2 mph 23.0 mph 64 % 0.00 in 0.0 W/m2 BKN
04:18 42.6 °F 30.1 °F 29.95 in WNW 14.6 mph 23.0 mph 61 % 0.00 in 0.0 W/m2 BKN
04:23 42.0 °F 28.7 °F 29.96 in West 14.3 mph 24.2 mph 59 % 0.00 in 0.0 W/m2 BKN
04:24 41.9 °F 28.6 °F 29.96 in WNW 15.0 mph 24.2 mph 59 % 0.00 in 0.0 W/m2 BKN
04:34 40.9 °F 27.7 °F 29.97 in WNW 15.2 mph 26.5 mph 59 % 0.00 in 0.0 W/m2 BKN
04:39 40.6 °F 27.0 °F 29.97 in WNW 14.1 mph 26.5 mph 58 % 0.00 in 0.0 W/m2 BKN
04:44 40.4 °F 26.4 °F 29.97 in WNW 14.3 mph 24.2 mph 57 % 0.00 in 0.0 W/m2 BKN
04:49 40.1 °F 25.2 °F 29.97 in West 12.5 mph 24.2 mph 55 % 0.00 in 0.0 W/m2 BKN
04:59 39.7 °F 25.7 °F 29.98 in West 11.5 mph 21.9 mph 57 % 0.00 in 0.0 W/m2 BKN
05:04 39.6 °F 25.6 °F 29.98 in SW 6.8 mph 20.7 mph 57 % 0.00 in 0.0 W/m2 BKN
05:09 39.4 °F 25.4 °F 29.98 in WNW 11.0 mph 17.3 mph 57 % 0.00 in 0.0 W/m2 BKN
05:14 39.3 °F 25.3 °F 29.98 in West 13.2 mph 23.0 mph 57 % 0.00 in 0.0 W/m2 BKN
05:19 39.2 °F 24.8 °F 29.98 in WNW 9.2 mph 23.0 mph 56 % 0.00 in 0.0 W/m2 BKN
05:24 39.0 °F 25.0 °F 29.98 in WNW 14.9 mph 19.6 mph 57 % 0.00 in 0.0 W/m2 BKN
05:29 38.8 °F 24.9 °F 29.99 in West 7.5 mph 20.7 mph 57 % 0.00 in 0.0 W/m2 BKN
05:35 38.6 °F 25.1 °F 29.99 in WSW 1.8 mph 20.7 mph 58 % 0.00 in 0.0 W/m2 BKN
05:40 38.3 °F 26.0 °F 30.00 in WSW 6.1 mph 15.0 mph 61 % 0.00 in 0.0 W/m2 BKN
05:45 38.1 °F 25.4 °F 30.01 in West 10.6 mph 17.3 mph 60 % 0.00 in 0.0 W/m2 BKN
05:50 38.1 °F 25.0 °F 30.00 in WNW 6.7 mph 17.3 mph 59 % 0.00 in 0.0 W/m2 BKN
05:55 38.0 °F 24.9 °F 30.00 in WNW 7.4 mph 17.3 mph 59 % 0.00 in 0.0 W/m2 BKN
06:00 37.9 °F 25.2 °F 30.01 in NW 5.9 mph 11.5 mph 60 % 0.00 in 0.0 W/m2 BKN
06:05 37.8 °F 25.1 °F 30.01 in WNW 5.0 mph 12.0 mph 60 % 0.00 in 0.0 W/m2 CLR
06:10 37.7 °F 25.1 °F 30.01 in WNW 8.2 mph 17.3 mph 60 % 0.00 in 0.0 W/m2 CLR
06:15 37.5 °F 24.9 °F 30.01 in WNW 6.4 mph 17.3 mph 60 % 0.00 in 0.0 W/m2 CLR
06:20 37.3 °F 24.3 °F 30.01 in WNW 9.0 mph 17.0 mph 59 % 0.00 in 0.0 W/m2 CLR
06:25 37.1 °F 23.7 °F 30.02 in WNW 9.0 mph 17.0 mph 58 % 0.00 in 0.0 W/m2 CLR
06:35 36.7 °F 23.3 °F 30.02 in WNW 6.0 mph 14.0 mph 58 % 0.00 in 0.0 W/m2 CLR
06:40 36.4 °F 23.0 °F 30.02 in NW 5.5 mph 15.0 mph 58 % 0.00 in 0.0 W/m2 CLR
06:50 36.0 °F 23.5 °F 30.02 in West 1.0 mph 10.0 mph 60 % 0.00 in 0.0 W/m2 CLR
07:00 35.7 °F 22.8 °F 30.03 in WNW 8.3 mph 18.4 mph 59 % 0.00 in 0.0 W/m2 CLR
07:05 35.6 °F 22.3 °F 30.03 in WNW 9.0 mph 20.0 mph 58 % 0.00 in 0.0 W/m2 CLR
07:10 35.5 °F 21.8 °F 30.04 in WNW 13.0 mph 18.0 mph 57 % 0.00 in 0.0 W/m2 CLR
07:15 35.5 °F 21.8 °F 30.04 in NW 4.5 mph 18.4 mph 57 % 0.00 in 0.0 W/m2 CLR
07:20 35.3 °F 21.2 °F 30.04 in WNW 7.0 mph 12.0 mph 56 % 0.00 in 0.0 W/m2 CLR
07:25 35.1 °F 21.0 °F 30.04 in WNW 6.0 mph 16.0 mph 56 % 0.00 in 7.0 W/m2 CLR
07:30 35.0 °F 21.3 °F 30.04 in WNW 2.7 mph 16.1 mph 57 % 0.00 in 11.0 W/m2 CLR
07:35 34.9 °F 21.2 °F 30.04 in WNW 8.0 mph 12.0 mph 57 % 0.00 in 14.0 W/m2 CLR
07:40 35.0 °F 21.3 °F 30.04 in WNW 5.5 mph 12.7 mph 57 % 0.00 in 19.0 W/m2 CLR
07:45 34.9 °F 21.6 °F 30.04 in WNW 4.7 mph 12.7 mph 58 % 0.00 in 25.0 W/m2 CLR
07:50 34.8 °F 21.5 °F 30.05 in Calm   11.5 mph 58 % 0.00 in 26.0 W/m2 CLR
07:55 34.7 °F 21.4 °F 30.04 in WNW 1.1 mph 11.5 mph 58 % 0.00 in 32.0 W/m2 CLR
08:00 34.7 °F 21.8 °F 30.05 in WNW 4.0 mph 8.1 mph 59 % 0.00 in 44.0 W/m2 CLR
08:05 34.7 °F 21.8 °F 30.05 in West 0.6 mph 8.1 mph 59 % 0.00 in 49.0 W/m2 CLR
08:10 34.7 °F 21.8 °F 30.05 in West 4.3 mph 10.4 mph 59 % 0.00 in 53.0 W/m2 CLR
08:15 34.7 °F 22.2 °F 30.05 in WNW 0.8 mph 10.4 mph 60 % 0.00 in 58.0 W/m2 CLR
08:20 34.9 °F 22.4 °F 30.05 in Calm   11.5 mph 60 % 0.00 in 62.0 W/m2 CLR
08:25 34.9 °F 22.8 °F 30.05 in Calm   11.5 mph 61 % 0.00 in 67.0 W/m2 CLR
08:30 34.9 °F 22.8 °F 30.05 in WNW 1.8 mph 6.9 mph 61 % 0.00 in 72.0 W/m2 CLR
08:35 34.8 °F 23.1 °F 30.06 in WNW 2.6 mph 6.9 mph 62 % 0.00 in 69.0 W/m2 CLR
08:40 34.7 °F 22.6 °F 30.06 in West 3.7 mph 10.4 mph 61 % 0.00 in 62.0 W/m2 CLR
08:45 34.6 °F 22.5 °F 30.06 in West 1.7 mph 10.4 mph 61 % 0.00 in 72.0 W/m2 CLR
08:46 34.6 °F 22.5 °F 30.06 in West 2.3 mph 10.4 mph 61 % 0.00 in 72.0 W/m2 CLR
08:51 34.7 °F 22.2 °F 30.06 in SW 7.4 mph 10.4 mph 60 % 0.00 in 74.0 W/m2 CLR
08:56 34.7 °F 22.2 °F 30.06 in West 4.8 mph 12.7 mph 60 % 0.00 in 77.0 W/m2 CLR
09:01 34.7 °F 22.2 °F 30.06 in West 2.8 mph 12.7 mph 60 % 0.00 in 79.0 W/m2 CLR
09:06 34.7 °F 22.6 °F 30.06 in SW 2.1 mph 10.4 mph 61 % 0.00 in 83.0 W/m2 CLR
09:11 34.5 °F 22.8 °F 30.06 in WSW 0.8 mph 10.4 mph 62 % 0.00 in 102.0 W/m2 CLR
09:16 34.6 °F 22.9 °F 30.06 in West 2.8 mph 10.4 mph 62 % 0.00 in 135.0 W/m2 CLR
09:21 34.7 °F 22.6 °F 30.07 in West 1.2 mph 10.4 mph 61 % 0.00 in 171.0 W/m2 CLR
09:26 35.0 °F 22.5 °F 30.07 in West 3.8 mph 10.4 mph 60 % 0.00 in 227.0 W/m2 CLR
09:31 35.6 °F 23.5 °F 30.06 in WSW 0.9 mph 10.4 mph 61 % 0.00 in 246.0 W/m2 CLR
09:36 36.1 °F 23.1 °F 30.06 in West 2.6 mph 10.4 mph 59 % 0.00 in 248.0 W/m2 CLR
09:41 36.4 °F 22.6 °F 30.07 in West 2.8 mph 10.4 mph 57 % 0.00 in 255.0 W/m2 CLR
09:46 36.7 °F 22.5 °F 30.07 in West 9.4 mph 12.7 mph 56 % 0.00 in 200.0 W/m2 CLR
09:51 36.9 °F 22.7 °F 30.07 in West 8.9 mph 18.4 mph 56 % 0.00 in 218.0 W/m2 CLR
09:56 37.0 °F 22.3 °F 30.07 in NNW 4.9 mph 18.4 mph 55 % 0.00 in 188.0 W/m2 CLR
10:01 37.1 °F 22.4 °F 30.07 in WSW 3.7 mph 11.5 mph 55 % 0.00 in 160.0 W/m2 CLR
10:06 36.8 °F 21.3 °F 30.06 in West 9.7 mph 13.8 mph 53 % 0.00 in 160.0 W/m2 CLR
10:11 36.6 °F 21.1 °F 30.07 in West 0.1 mph 16.1 mph 53 % 0.00 in 141.0 W/m2 CLR
10:16 36.5 °F 21.0 °F 30.07 in West 8.5 mph 16.1 mph 53 % 0.00 in 113.0 W/m2 CLR
10:21 36.2 °F 20.7 °F 30.07 in NW 3.5 mph 17.3 mph 53 % 0.00 in 120.0 W/m2 CLR
10:26 36.2 °F 21.1 °F 30.07 in West 7.6 mph 17.3 mph 54 % 0.00 in 179.0 W/m2 CLR
10:31 36.3 °F 21.2 °F 30.07 in WSW 7.4 mph 15.0 mph 54 % 0.00 in 156.0 W/m2 CLR
10:36 36.5 °F 21.0 °F 30.07 in West 8.3 mph 15.0 mph 53 % 0.00 in 258.0 W/m2 CLR
10:41 36.9 °F 21.3 °F 30.06 in West 4.2 mph 17.3 mph 53 % 0.00 in 496.0 W/m2 CLR
10:46 37.4 °F 20.4 °F 30.07 in West 9.4 mph 17.3 mph 50 % 0.00 in 376.0 W/m2 CLR
10:51 37.4 °F 20.4 °F 30.07 in WSW 14.3 mph 17.3 mph 50 % 0.00 in 234.0 W/m2 CLR
10:56 37.5 °F 20.1 °F 30.06 in WNW 8.8 mph 25.3 mph 49 % 0.00 in 380.0 W/m2 CLR
11:01 38.0 °F 20.5 °F 30.05 in West 8.8 mph 25.3 mph 49 % 0.00 in 283.0 W/m2 CLR
11:06 38.1 °F 20.1 °F 30.04 in West 10.3 mph 17.3 mph 48 % 0.00 in 341.0 W/m2 CLR
11:11 38.3 °F 19.8 °F 30.05 in WSW 9.8 mph 17.3 mph 47 % 0.00 in 422.0 W/m2 CLR
11:16 38.8 °F 19.2 °F 30.04 in WSW 9.2 mph 19.6 mph 45 % 0.00 in 392.0 W/m2 CLR
11:21 38.8 °F 18.7 °F 30.04 in West 10.0 mph 19.6 mph 44 % 0.00 in 250.0 W/m2 CLR
11:26 38.7 °F 18.1 °F 30.04 in WNW 7.8 mph 21.9 mph 43 % 0.00 in 499.0 W/m2 CLR
11:31 38.6 °F 17.5 °F 30.04 in WSW 7.7 mph 21.9 mph 42 % 0.00 in 320.0 W/m2 CLR
11:36 38.2 °F 17.1 °F 30.04 in NW 11.8 mph 19.6 mph 42 % 0.00 in 359.0 W/m2 CLR
11:41 38.5 °F 17.4 °F 30.03 in West 11.0 mph 18.4 mph 42 % 0.00 in 381.0 W/m2 CLR
11:46 38.6 °F 16.9 °F 30.04 in WNW 8.9 mph 18.4 mph 41 % 0.00 in 413.0 W/m2 CLR
11:52 39.0 °F 17.8 °F 30.03 in West 12.7 mph 18.4 mph 42 % 0.00 in 432.0 W/m2 CLR
11:57 38.8 °F 17.1 °F 30.03 in West 8.6 mph 20.7 mph 41 % 0.00 in 471.0 W/m2 CLR
12:02 39.0 °F 16.7 °F 30.03 in West 10.6 mph 20.7 mph 40 % 0.00 in 468.0 W/m2 CLR
12:07 39.1 °F 17.4 °F 30.03 in SW 2.9 mph 19.6 mph 41 % 0.00 in 462.0 W/m2 CLR
12:12 39.2 °F 17.4 °F 30.03 in West 10.9 mph 19.6 mph 41 % 0.00 in 461.0 W/m2 CLR
12:17 39.5 °F 17.7 °F 30.03 in SW 9.3 mph 19.6 mph 41 % 0.00 in 459.0 W/m2 CLR
12:22 39.6 °F 17.8 °F 30.03 in SW 6.0 mph 18.4 mph 41 % 0.00 in 455.0 W/m2 CLR
12:27 39.9 °F 18.1 °F 30.02 in West 11.0 mph 19.6 mph 41 % 0.00 in 452.0 W/m2 CLR
12:32 40.1 °F 17.7 °F 30.02 in WSW 8.4 mph 19.6 mph 40 % 0.00 in 450.0 W/m2 CLR
12:37 40.0 °F 18.2 °F 30.01 in West 5.5 mph 19.6 mph 41 % 0.00 in 443.0 W/m2 CLR
12:42 39.9 °F 17.5 °F 30.01 in WSW 1.9 mph 16.1 mph 40 % 0.00 in 441.0 W/m2 CLR
12:47 40.1 °F 17.7 °F 30.01 in West 11.2 mph 15.0 mph 40 % 0.00 in 436.0 W/m2 CLR
12:52 40.2 °F 18.3 °F 30.01 in WSW 5.9 mph 15.0 mph 41 % 0.00 in 432.0 W/m2 CLR
12:57 40.5 °F 18.0 °F 30.01 in WSW 8.8 mph 15.0 mph 40 % 0.00 in 427.0 W/m2 CLR
13:02 40.3 °F 17.9 °F 30.01 in WSW 4.4 mph 19.6 mph 40 % 0.00 in 415.0 W/m2 CLR
13:07 40.6 °F 18.7 °F 30.01 in WNW 4.4 mph 19.6 mph 41 % 0.00 in 343.0 W/m2 CLR
13:12 40.3 °F 17.3 °F 30.00 in WNW 9.3 mph 18.4 mph 39 % 0.00 in 264.0 W/m2 CLR
13:17 40.2 °F 18.3 °F 30.00 in WSW 9.0 mph 18.4 mph 41 % 0.00 in 237.0 W/m2 CLR
13:22 40.3 °F 17.9 °F 30.00 in West 6.5 mph 17.3 mph 40 % 0.00 in 100.0 W/m2 CLR
13:23 40.3 °F 17.9 °F 30.00 in WSW 7.0 mph 17.3 mph 40 % 0.00 in 100.0 W/m2 CLR
13:28 39.9 °F 17.5 °F 30.00 in NW 5.0 mph 17.3 mph 40 % 0.00 in 193.0 W/m2 CLR
13:33 40.0 °F 18.2 °F 30.00 in West 5.9 mph 15.0 mph 41 % 0.00 in 285.0 W/m2 CLR
13:37 40.6 °F 18.7 °F 30.00 in WSW 1.7 mph 12.7 mph 41 % 0.00 in 345.0 W/m2 CLR
13:42 41.0 °F 18.5 °F 30.00 in WNW 4.8 mph 12.7 mph 40 % 0.00 in 373.0 W/m2 CLR
13:47 41.3 °F 18.8 °F 30.00 in SW 9.0 mph 13.8 mph 40 % 0.00 in 371.0 W/m2 CLR
13:53 41.3 °F 18.8 °F 29.99 in NW 5.3 mph 18.4 mph 40 % 0.00 in 355.0 W/m2 CLR
13:58 41.6 °F 18.4 °F 30.00 in West 8.5 mph 18.4 mph 39 % 0.00 in 330.0 W/m2 CLR
14:03 41.4 °F 18.3 °F 30.00 in WNW 9.1 mph 15.0 mph 39 % 0.00 in 243.0 W/m2 CLR
14:08 41.5 °F 18.9 °F 30.00 in WSW 6.0 mph 16.1 mph 40 % 0.00 in 225.0 W/m2 CLR
14:13 41.4 °F 18.9 °F 30.00 in West 7.7 mph 16.1 mph 40 % 0.00 in 148.0 W/m2 CLR
14:18 41.0 °F 18.5 °F 30.01 in West 6.5 mph 13.8 mph 40 % 0.00 in 139.0 W/m2 CLR
14:23 40.8 °F 18.9 °F 30.00 in SW 3.9 mph 13.8 mph 41 % 0.00 in 102.0 W/m2 CLR
14:28 40.7 °F 19.4 °F 30.00 in WSW 6.8 mph 11.5 mph 42 % 0.00 in 232.0 W/m2 CLR
14:33 40.5 °F 19.7 °F 30.00 in SSW 1.8 mph 11.5 mph 43 % 0.00 in 130.0 W/m2 CLR
14:38 40.1 °F 19.4 °F 30.00 in SSW 3.8 mph 11.5 mph 43 % 0.00 in 125.0 W/m2 CLR
14:43 39.8 °F 19.6 °F 30.00 in SW 0.8 mph 9.2 mph 44 % 0.00 in 97.0 W/m2 CLR
14:48 39.7 °F 19.5 °F 30.00 in West 4.0 mph 11.5 mph 44 % 0.00 in 91.0 W/m2 CLR
14:53 39.6 °F 19.5 °F 30.00 in SW 3.4 mph 11.5 mph 44 % 0.00 in 105.0 W/m2 CLR
14:58 39.6 °F 19.5 °F 30.00 in WSW 6.8 mph 11.5 mph 44 % 0.00 in 90.0 W/m2 CLR
15:03 39.5 °F 19.9 °F 29.99 in WSW 0.5 mph 11.5 mph 45 % 0.00 in 72.0 W/m2 CLR
15:08 39.5 °F 20.4 °F 30.00 in WSW 2.9 mph 11.5 mph 46 % 0.00 in 70.0 W/m2 CLR
15:13 39.4 °F 20.3 °F 30.00 in WSW 2.2 mph 10.4 mph 46 % 0.00 in 76.0 W/m2 CLR
15:18 39.4 °F 20.8 °F 30.00 in WSW 0.2 mph 11.5 mph 47 % 0.00 in 69.0 W/m2 CLR
15:23 39.3 °F 20.2 °F 30.00 in WSW 4.1 mph 13.8 mph 46 % 0.00 in 77.0 W/m2 CLR
15:28 39.3 °F 20.7 °F 30.00 in West 1.8 mph 13.8 mph 47 % 0.00 in 56.0 W/m2 CLR
15:33 39.3 °F 20.7 °F 30.00 in SW 0.4 mph 12.7 mph 47 % 0.00 in 58.0 W/m2 CLR
15:38 39.1 °F 20.5 °F 30.00 in WSW 1.0 mph 10.4 mph 47 % 0.00 in 53.0 W/m2 CLR
15:43 39.0 °F 20.5 °F 30.01 in SW 1.3 mph 10.4 mph 47 % 0.00 in 51.0 W/m2 CLR
15:48 38.9 °F 20.9 °F 30.01 in SW 1.4 mph 10.4 mph 48 % 0.00 in 46.0 W/m2 CLR
15:53 38.8 °F 21.3 °F 30.00 in SW 0.3 mph 5.8 mph 49 % 0.00 in 42.0 W/m2 CLR
15:58 38.7 °F 21.2 °F 30.01 in SW 0.7 mph 5.8 mph 49 % 0.00 in 33.0 W/m2 CLR
16:03 38.6 °F 21.1 °F 30.01 in SW 0.2 mph 5.8 mph 49 % 0.00 in 28.0 W/m2 CLR
16:08 38.5 °F 21.0 °F 30.01 in Calm   5.8 mph 49 % 0.00 in 25.0 W/m2 CLR
16:13 38.4 °F 21.4 °F 30.01 in Calm   3.5 mph 50 % 0.00 in 18.0 W/m2 CLR
16:18 38.3 °F 21.3 °F 30.01 in Calm   3.5 mph 50 % 0.00 in 12.0 W/m2 CLR
16:23 38.1 °F 21.1 °F 30.01 in SW 0.1 mph 1.2 mph 50 % 0.00 in 9.0 W/m2 CLR
16:24 38.1 °F 21.1 °F 30.01 in SW 0.1 mph 1.2 mph 50 % 0.00 in 9.0 W/m2 CLR
16:29 38.0 °F 21.5 °F 30.01 in Calm   1.2 mph 51 % 0.00 in 7.0 W/m2 CLR
16:34 37.8 °F 21.3 °F 30.00 in Calm   1.2 mph 51 % 0.00 in 0.0 W/m2 CLR
16:39 37.6 °F 21.5 °F 30.00 in Calm     52 % 0.00 in 0.0 W/m2 CLR
16:44 37.3 °F 21.3 °F 30.00 in Calm     52 % 0.00 in 0.0 W/m2 CLR
16:49 37.1 °F 21.1 °F 30.00 in Calm     52 % 0.00 in 0.0 W/m2 CLR
16:54 36.9 °F 20.9 °F 30.00 in Calm     52 % 0.00 in 0.0 W/m2 CLR
16:59 36.8 °F 21.3 °F 30.01 in Calm     53 % 0.00 in 0.0 W/m2 CLR
17:04 36.7 °F 20.7 °F 30.01 in Calm     52 % 0.00 in 0.0 W/m2 CLR
17:09 36.6 °F 20.6 °F 30.01 in Calm     52 % 0.00 in 0.0 W/m2 CLR
17:19 36.4 °F 20.9 °F 30.01 in Calm     53 % 0.00 in 0.0 W/m2 CLR
17:24 36.4 °F 20.9 °F 30.01 in Calm     53 % 0.00 in 0.0 W/m2 CLR
17:29 36.3 °F 20.8 °F 30.01 in Calm     53 % 0.00 in 0.0 W/m2 CLR
17:34 36.2 °F 20.7 °F 30.01 in Calm     53 % 0.00 in 0.0 W/m2 CLR
17:39 36.3 °F 20.8 °F 30.01 in Calm     53 % 0.00 in 0.0 W/m2 CLR
17:44 36.2 °F 20.7 °F 30.01 in Calm   2.3 mph 53 % 0.00 in 0.0 W/m2 CLR
17:49 36.1 °F 20.6 °F 30.02 in SSW 0.1 mph 3.5 mph 53 % 0.00 in 0.0 W/m2 CLR
17:54 36.0 °F 20.9 °F 30.01 in Calm   3.5 mph 54 % 0.00 in 0.0 W/m2 CLR
17:59 36.0 °F 20.9 °F 30.01 in Calm   2.3 mph 54 % 0.00 in 0.0 W/m2 CLR
18:04 35.9 °F 20.9 °F 30.01 in Calm     54 % 0.00 in 0.0 W/m2 CLR
18:09 35.8 °F 21.2 °F 30.01 in Calm     55 % 0.00 in 0.0 W/m2 CLR
18:14 35.6 °F 21.4 °F 30.01 in Calm     56 % 0.00 in 0.0 W/m2 CLR
18:19 35.5 °F 21.3 °F 30.00 in Calm     56 % 0.00 in 0.0 W/m2 CLR
18:25 35.3 °F 21.2 °F 30.01 in Calm     56 % 0.00 in 0.0 W/m2 CLR
18:30 35.4 °F 21.2 °F 30.01 in Calm     56 % 0.00 in 0.0 W/m2 CLR
18:35 35.5 °F 21.3 °F 30.01 in Calm     56 % 0.00 in 0.0 W/m2 CLR
18:40 35.7 °F 21.1 °F 30.01 in Calm   3.5 mph 55 % 0.00 in 0.0 W/m2 CLR
18:45 35.9 °F 21.3 °F 30.01 in SSW 0.9 mph 3.5 mph 55 % 0.00 in 0.0 W/m2 CLR
18:50 36.0 °F 20.9 °F 30.01 in SSW 0.3 mph 3.5 mph 54 % 0.00 in 0.0 W/m2 CLR
18:55 36.1 °F 21.0 °F 30.01 in Calm   3.5 mph 54 % 0.00 in 0.0 W/m2 CLR
19:00 36.2 °F 21.1 °F 30.01 in Calm   3.5 mph 54 % 0.00 in 0.0 W/m2 CLR
19:05 36.2 °F 21.1 °F 30.02 in Calm   2.3 mph 54 % 0.00 in 0.0 W/m2 CLR
19:10 36.0 °F 21.4 °F 30.02 in Calm   1.2 mph 55 % 0.00 in 0.0 W/m2 CLR
19:15 35.8 °F 21.6 °F 30.02 in Calm     56 % 0.00 in 0.0 W/m2 CLR
19:20 35.7 °F 21.5 °F 30.02 in Calm     56 % 0.00 in 0.0 W/m2 CLR
19:25 35.5 °F 21.3 °F 30.02 in Calm     56 % 0.00 in 0.0 W/m2 CLR
19:30 35.6 °F 21.4 °F 30.02 in Calm     56 % 0.00 in 0.0 W/m2 CLR
19:35 35.5 °F 21.8 °F 30.02 in Calm     57 % 0.00 in 0.0 W/m2 CLR
19:40 35.3 °F 21.6 °F 30.01 in Calm     57 % 0.00 in 0.0 W/m2 CLR
19:45 35.2 °F 21.5 °F 30.01 in Calm     57 % 0.00 in 0.0 W/m2 CLR
19:50 35.2 °F 21.9 °F 30.01 in Calm     58 % 0.00 in 0.0 W/m2 CLR
19:55 35.0 °F 21.7 °F 30.01 in Calm     58 % 0.00 in 0.0 W/m2 CLR
20:00 35.0 °F 21.7 °F 30.02 in Calm     58 % 0.00 in 0.0 W/m2 CLR
20:01 35.0 °F 21.7 °F 30.02 in Calm     58 % 0.00 in 0.0 W/m2 CLR
20:06 34.7 °F 21.8 °F 30.02 in Calm     59 % 0.00 in 0.0 W/m2 CLR
20:11 34.4 °F 21.9 °F 30.02 in Calm     60 % 0.00 in 0.0 W/m2 CLR
20:16 34.1 °F 22.0 °F 30.01 in Calm     61 % 0.00 in 0.0 W/m2 CLR
20:21 33.9 °F 22.2 °F 30.02 in Calm     62 % 0.00 in 0.0 W/m2 CLR
20:26 33.7 °F 22.4 °F 30.01 in Calm     63 % 0.00 in 0.0 W/m2 CLR
20:31 33.4 °F 22.5 °F 30.02 in Calm     64 % 0.00 in 0.0 W/m2 CLR
20:36 33.5 °F 22.2 °F 30.02 in Calm     63 % 0.00 in 0.0 W/m2 CLR
20:41 33.1 °F 22.6 °F 30.02 in Calm     65 % 0.00 in 0.0 W/m2 CLR
20:46 32.9 °F 22.4 °F 30.01 in Calm     65 % 0.00 in 0.0 W/m2 CLR
20:51 33.1 °F 22.6 °F 30.01 in Calm     65 % 0.00 in 0.0 W/m2 CLR
20:56 32.9 °F 22.8 °F 30.02 in Calm     66 % 0.00 in 0.0 W/m2 CLR
21:01 32.8 °F 22.7 °F 30.02 in Calm     66 % 0.00 in 0.0 W/m2 CLR
21:06 32.9 °F 22.8 °F 30.02 in Calm     66 % 0.00 in 0.0 W/m2 SCT
21:11 32.7 °F 22.9 °F 30.02 in Calm     67 % 0.00 in 0.0 W/m2 SCT
21:16 32.5 °F 23.1 °F 30.02 in Calm     68 % 0.00 in 0.0 W/m2 SCT
21:21 32.4 °F 23.0 °F 30.02 in Calm     68 % 0.00 in 0.0 W/m2 SCT
21:26 32.2 °F 22.8 °F 30.01 in Calm     68 % 0.00 in 0.0 W/m2 SCT
21:31 31.9 °F 22.9 °F 30.01 in Calm     69 % 0.00 in 0.0 W/m2 SCT
21:36 31.9 °F 22.9 °F 30.01 in Calm     69 % 0.00 in 0.0 W/m2 SCT
21:41 31.9 °F 22.9 °F 30.01 in Calm     69 % 0.00 in 0.0 W/m2 SCT
21:46 31.8 °F 22.8 °F 30.01 in Calm     69 % 0.00 in 0.0 W/m2 SCT
21:51 31.7 °F 23.0 °F 30.01 in Calm     70 % 0.00 in 0.0 W/m2 SCT
21:56 31.6 °F 22.9 °F 30.01 in Calm     70 % 0.00 in 0.0 W/m2 SCT
22:01 31.6 °F 22.6 °F 30.01 in Calm     69 % 0.00 in 0.0 W/m2 CLR
22:06 31.6 °F 22.6 °F 30.01 in Calm     69 % 0.00 in 0.0 W/m2 CLR
22:12 31.7 °F 22.7 °F 30.01 in Calm     69 % 0.00 in 0.0 W/m2 CLR
22:17 31.3 °F 22.6 °F 30.01 in Calm     70 % 0.00 in 0.0 W/m2 CLR
22:22 31.0 °F 22.7 °F 30.02 in Calm     71 % 0.00 in 0.0 W/m2 CLR
22:24 30.9 °F 22.6 °F 30.02 in Calm     71 % 0.00 in 0.0 W/m2 CLR
22:29 30.7 °F 22.4 °F 30.02 in Calm     71 % 0.00 in 0.0 W/m2 CLR
22:34 30.6 °F 22.6 °F 30.02 in Calm     72 % 0.00 in 0.0 W/m2 CLR
22:39 30.6 °F 22.6 °F 30.02 in Calm     72 % 0.00 in 0.0 W/m2 CLR
22:44 30.7 °F 22.7 °F 30.02 in Calm     72 % 0.00 in 0.0 W/m2 CLR
22:49 30.6 °F 22.6 °F 30.02 in Calm     72 % 0.00 in 0.0 W/m2 CLR
22:54 30.3 °F 22.4 °F 30.02 in Calm     72 % 0.00 in 0.0 W/m2 CLR
22:59 30.2 °F 22.6 °F 30.02 in Calm     73 % 0.00 in 0.0 W/m2 CLR
23:04 30.1 °F 22.5 °F 30.01 in Calm     73 % 0.00 in 0.0 W/m2 CLR
23:09 29.9 °F 22.6 °F 30.02 in Calm     74 % 0.00 in 0.0 W/m2 CLR
23:14 29.8 °F 22.8 °F 30.01 in Calm     75 % 0.00 in 0.0 W/m2 CLR
23:19 29.6 °F 23.0 °F 30.02 in Calm     76 % 0.00 in 0.0 W/m2 CLR
23:24 29.4 °F 22.8 °F 30.02 in Calm     76 % 0.00 in 0.0 W/m2 CLR
23:29 29.4 °F 22.8 °F 30.02 in Calm     76 % 0.00 in 0.0 W/m2 CLR
23:34 29.3 °F 22.7 °F 30.02 in Calm     76 % 0.00 in 0.0 W/m2 CLR
23:39 29.2 °F 22.9 °F 30.02 in Calm     77 % 0.00 in 0.0 W/m2 CLR
23:44 29.3 °F 23.0 °F 30.02 in Calm     77 % 0.00 in 0.0 W/m2 CLR
23:49 29.4 °F 23.4 °F 30.02 in Calm     78 % 0.00 in 0.0 W/m2 CLR
23:55 29.5 °F 23.5 °F 30.02 in Calm     78 % 0.00 in 0.0 W/m2 CLR
Air Products Campus Weather
Compliments of Weather Underground - 3.5 mb